الصفحة الرئيسية
METAR-TAF:

METAR-TAF

مطار :

Fort Morgan, كولورادو, الولايات المتحدة

دائرة عرض: 40-20-02N, خط طول: 103-48-15W, ارتفاع: 1393 متر

مراقبة الطقس الحالي

تاريخ ووقت الإصدار 9 دقيقة قبل الساعة 02:15UTC
ريح 7 عقدة من الشرق/الشمال الشرقي
درجة الحرارة 23°درجة مئوية
الرطوبة 33%
ضغط 1014 hPa
الرؤية: 16.1 كم
سماء صافية

METAR: KFMM 260215Z AUTO 06007KT 10SM CLR 23/06 A2995 RMK AO2 T02250060

زمن: 20:24 (02:24 UTC)


TAF: مفقودة

أرصاد الطقس والتوقعات من أكثر من 4000 مطار (تقارير الطقس للمطار METAR والتنبؤ بالطقس بالمطارTAF).

المحطات المتاحة هي النقط الصفراء والحمراء على الخريطة.

حرك المؤشر فوق النقطة لمعرفة اسم المحطة.

ثم انقر لمعرفة أرصاد وتوقعات الطقس.

لتغيير الخارطة: اضغط على الأزرار الخضراء مع رمز الصليب الأسود للتكبير. على الزر الأخضر مع شرطة للتصغير، أو على الأسهم الخضراء للخرائط المجاورة.


METAR-TAF: